Time;durP1;ratioP1;P1;durP2;ratioP2;P2;SDS_P1;SDS_P2;PMS_P1;PMS_P2;Temp;Humidity;BMP_temperature;BMP_pressure;BME280_temperature;BME280_humidity;BME280_pressure;Samples;Min_cycle;Max_cycle;Signal;HPM_P1;HPM_P2
2021/01/29 00:01:03;;;;;;;5.30;3.62;;;;;;;-1.78;92.64;98485.30;1687625;84;21274;-42
2021/01/29 00:03:31;;;;;;;7.37;3.95;;;;;;;-1.79;92.84;98500.66;1714267;83;21197;-42
2021/01/29 00:12:00;;;;;;;5.40;4.33;;;;;;;-1.80;93.52;98495.92;1779341;79;23019;-48
2021/01/29 00:14:28;;;;;;;5.78;3.80;;;;;;;-1.84;93.63;98498.00;1709597;82;21614;-42
2021/01/29 00:16:56;;;;;;;7.40;4.35;;;;;;;-1.85;93.61;98490.28;1679371;84;21159;-42
2021/01/29 00:19:24;;;;;;;5.45;4.03;;;;;;;-1.85;93.57;98503.10;1697017;83;21144;-41
2021/01/29 00:21:52;;;;;;;7.97;4.17;;;;;;;-1.87;93.47;98496.64;1708583;84;21180;-43
2021/01/29 00:24:21;;;;;;;4.75;3.37;;;;;;;-1.88;93.08;98502.60;1708633;83;21210;-42
2021/01/29 00:26:48;;;;;;;6.40;3.85;;;;;;;-1.91;92.55;98535.88;1708511;83;21160;-47
2021/01/29 00:29:16;;;;;;;7.25;3.52;;;;;;;-1.95;91.85;98499.05;1716215;83;21217;-43
2021/01/29 00:31:44;;;;;;;5.67;3.37;;;;;;;-1.98;91.19;98523.74;1722843;83;21242;-43
2021/01/29 00:34:12;;;;;;;6.17;4.85;;;;;;;-2.03;90.81;98504.83;1722861;83;21785;-48
2021/01/29 00:36:40;;;;;;;6.30;4.00;;;;;;;-2.06;90.96;98505.65;1722941;83;21139;-42
2021/01/29 00:39:08;;;;;;;4.92;3.15;;;;;;;-2.08;91.29;98502.61;1722834;83;21198;-43
2021/01/29 00:41:36;;;;;;;5.05;3.95;;;;;;;-2.10;91.55;98507.69;1722747;83;21317;-42
2021/01/29 00:44:05;;;;;;;8.83;4.97;;;;;;;-2.10;91.75;98514.51;1716481;83;21220;-44
2021/01/29 00:46:32;;;;;;;7.47;4.83;;;;;;;-2.09;91.97;98507.27;1708398;83;21212;-49
2021/01/29 00:49:00;;;;;;;8.18;4.83;;;;;;;-2.08;92.11;98512.87;1708645;84;21180;-49
2021/01/29 00:51:28;;;;;;;7.42;5.15;;;;;;;-2.07;92.13;98512.03;1709346;83;21718;-48
2021/01/29 00:53:56;;;;;;;7.92;4.70;;;;;;;-2.06;92.08;98512.47;1722939;83;21606;-49
2021/01/29 00:56:25;;;;;;;12.25;5.97;;;;;;;-2.06;91.92;98513.75;1721606;83;21171;-44
2021/01/29 00:59:05;;;;;;;10.58;5.70;;;;;;;-2.02;91.83;98505.31;1768812;79;23293;-48
2021/01/29 01:01:34;;;;;;;11.22;5.37;;;;;;;-2.07;91.66;98519.72;1717388;82;21191;-43
2021/01/29 01:04:03;;;;;;;11.08;5.12;;;;;;;-2.11;91.47;98529.44;1696213;84;21750;-48
2021/01/29 01:06:30;;;;;;;8.48;4.30;;;;;;;-2.15;91.49;98528.08;1696334;83;21212;-42
2021/01/29 01:09:16;;;;;;;10.00;5.45;;;;;;;-2.16;91.42;98535.73;1698742;84;21360;-43
2021/01/29 01:11:44;;;;;;;6.20;4.10;;;;;;;-2.18;91.31;98533.57;1714541;83;21151;-43
2021/01/29 01:14:33;;;;;;;6.80;4.42;;;;;;;-2.17;91.31;98532.73;1816757;79;23633;-48
2021/01/29 01:17:16;;;;;;;5.97;3.45;;;;;;;-2.25;90.97;98541.54;1758923;80;21192;-49
2021/01/29 01:20:07;;;;;;;6.90;3.47;;;;;;;-2.26;90.21;98532.13;1757600;81;21173;-43
2021/01/29 01:22:35;;;;;;;5.28;3.35;;;;;;;-2.30;89.97;98535.44;1757609;81;21185;-49
2021/01/29 01:25:31;;;;;;;4.40;3.40;;;;;;;-2.28;89.91;98538.89;1779143;79;23227;-48
2021/01/29 01:28:00;;;;;;;7.00;3.70;;;;;;;-2.36;89.80;98537.86;1735780;82;21190;-49
2021/01/29 01:30:38;;;;;;;6.83;3.27;;;;;;;-2.37;89.87;98558.33;1735645;82;21660;-49
2021/01/29 01:33:08;;;;;;;5.03;3.25;;;;;;;-2.44;90.02;98555.59;1742462;80;21130;-49
2021/01/29 01:35:37;;;;;;;4.08;2.62;;;;;;;-2.48;90.25;98548.69;1746845;80;21631;-44
2021/01/29 01:38:05;;;;;;;5.35;3.15;;;;;;;-2.51;90.23;98543.48;1745569;81;22731;-44
2021/01/29 01:40:50;;;;;;;2.98;2.33;;;;;;;-2.52;90.16;98553.69;1733702;81;21213;-44
2021/01/29 01:43:21;;;;;;;3.22;2.35;;;;;;;-2.52;89.86;98562.66;1713797;82;21167;-44
2021/01/29 01:46:06;;;;;;;4.55;2.75;;;;;;;-2.55;89.23;98577.55;1721835;81;21621;-44
2021/01/29 01:48:41;;;;;;;3.77;2.80;;;;;;;-2.57;88.85;98566.38;1719148;82;21403;-49
2021/01/29 01:52:04;;;;;;;8.05;2.77;;;;;;;-2.54;88.55;98579.69;1775726;79;23588;-43
2021/01/29 01:54:46;;;;;;;2.80;2.22;;;;;;;-2.62;87.91;98561.55;1747298;81;21563;-43
2021/01/29 01:57:15;;;;;;;2.90;2.02;;;;;;;-2.64;87.74;98563.64;1723739;81;21607;-48
2021/01/29 02:00:08;;;;;;;2.67;2.15;;;;;;;-2.69;87.67;98560.54;1691498;83;21201;-47
2021/01/29 02:02:48;;;;;;;4.92;1.98;;;;;;;-2.72;87.33;98565.60;1673438;84;21215;-49
2021/01/29 02:05:37;;;;;;;4.10;2.67;;;;;;;-2.73;87.58;98584.73;1768313;79;23098;-43
2021/01/29 02:08:12;;;;;;;3.05;2.10;;;;;;;-2.82;87.65;98574.28;1712611;83;21165;-42
2021/01/29 02:10:49;;;;;;;3.55;2.75;;;;;;;-2.82;86.95;98580.69;1762476;79;23129;-43
2021/01/29 02:13:19;;;;;;;5.20;2.77;;;;;;;-2.89;86.52;98567.28;1706113;84;21182;-49
2021/01/29 02:15:51;;;;;;;3.70;2.30;;;;;;;-2.90;86.52;98610.31;1689944;83;21172;-47
2021/01/29 02:18:47;;;;;;;3.45;2.30;;;;;;;-2.93;86.52;98585.52;1708616;84;21193;-49
2021/01/29 02:22:08;;;;;;;5.60;2.85;;;;;;;-2.93;86.50;98584.24;1715480;83;21646;-49
2021/01/29 02:25:30;;;;;;;4.62;2.92;;;;;;;-2.95;86.20;98571.41;1723006;82;21574;-44
2021/01/29 02:28:00;;;;;;;5.30;2.50;;;;;;;-2.94;85.66;98572.28;1720975;83;21586;-47
2021/01/29 02:31:05;;;;;;;6.87;2.90;;;;;;;-2.87;85.86;98568.17;1764901;79;22992;-49
2021/01/29 02:34:03;;;;;;;5.78;2.50;;;;;;;-2.91;86.07;98574.03;1703452;84;21222;-47
2021/01/29 02:37:00;;;;;;;5.53;3.10;;;;;;;-2.91;86.47;98577.45;1706724;83;21646;-44
2021/01/29 02:40:20;;;;;;;4.58;3.00;;;;;;;-2.87;87.02;98569.05;1762770;79;22956;-43
2021/01/29 02:43:12;;;;;;;7.97;3.37;;;;;;;-2.92;87.29;98577.02;1722854;83;21603;-49
2021/01/29 02:45:56;;;;;;;6.60;3.08;;;;;;;-2.91;87.64;98580.02;1690120;83;21202;-45
2021/01/29 02:48:55;;;;;;;6.30;3.30;;;;;;;-2.88;87.94;98585.65;1695009;83;21200;-47
2021/01/29 02:52:00;;;;;;;6.72;4.20;;;;;;;-2.88;88.23;98578.83;1708573;84;21165;-47
2021/01/29 02:54:58;;;;;;;9.48;6.58;;;;;;;-2.86;88.59;98585.27;1718387;82;21207;-48
2021/01/29 02:57:57;;;;;;;10.70;5.87;;;;;;;-2.83;88.99;98592.63;1780051;79;23067;-43
2021/01/29 03:00:53;;;;;;;8.93;5.28;;;;;;;-2.86;89.01;98596.78;1718213;82;21153;-49
2021/01/29 03:03:25;;;;;;;7.62;4.47;;;;;;;-2.88;88.77;98591.63;1708643;84;21632;-42
2021/01/29 03:06:34;;;;;;;6.15;3.90;;;;;;;-2.87;88.66;98593.77;1779982;79;23393;-42
2021/01/29 03:09:34;;;;;;;6.58;4.42;;;;;;;-2.93;88.56;98596.17;1671309;84;21260;-49
2021/01/29 03:12:29;;;;;;;8.55;4.97;;;;;;;-2.96;88.39;98607.18;1669801;86;21713;-43
2021/01/29 03:15:22;;;;;;;8.05;5.20;;;;;;;-2.99;88.28;98607.98;1669879;86;21660;-44
2021/01/29 03:18:34;;;;;;;5.87;3.55;;;;;;;-2.99;88.11;98596.88;1651027;86;21162;-49
2021/01/29 03:21:38;;;;;;;7.42;4.58;;;;;;;-2.95;87.85;98598.70;1785710;78;23130;-43
2021/01/29 03:24:38;;;;;;;7.15;5.28;;;;;;;-2.99;87.66;98600.72;1744643;81;21373;-43
2021/01/29 03:27:30;;;;;;;7.47;5.08;;;;;;;-3.00;87.75;98611.37;1753949;81;21667;-44
2021/01/29 03:30:21;;;;;;;9.35;5.53;;;;;;;-3.00;87.98;98609.23;1741614;81;21210;-43
2021/01/29 03:33:11;;;;;;;8.95;5.62;;;;;;;-3.01;88.26;98610.06;1740354;81;21663;-44
2021/01/29 03:36:01;;;;;;;8.70;5.28;;;;;;;-3.01;88.53;98613.89;1730218;83;21225;-48
2021/01/29 03:38:55;;;;;;;10.40;6.10;;;;;;;-3.01;88.77;98619.02;1725255;82;21213;-50
2021/01/29 03:41:43;;;;;;;9.93;6.17;;;;;;;-3.01;88.93;98617.73;1698688;83;21192;-49
2021/01/29 03:44:56;;;;;;;9.30;6.12;;;;;;;-3.02;89.12;98621.95;1678931;84;21235;-42
2021/01/29 03:47:39;;;;;;;12.40;6.92;;;;;;;-2.99;89.18;98623.75;1780004;79;23086;-49
2021/01/29 03:50:59;;;;;;;14.58;6.87;;;;;;;-3.05;89.24;98627.42;1722753;82;21592;-49
2021/01/29 03:54:12;;;;;;;12.60;7.33;;;;;;;-3.05;89.38;98638.94;1708671;83;21223;-43
2021/01/29 03:57:21;;;;;;;11.25;8.00;;;;;;;-3.05;89.29;98628.70;1708935;83;21786;-50
2021/01/29 04:00:20;;;;;;;12.43;6.20;;;;;;;-3.05;89.21;98638.94;1709304;83;21145;-49
2021/01/29 04:03:12;;;;;;;12.90;7.70;;;;;;;-3.08;89.20;98645.23;1722934;82;21177;-43
2021/01/29 04:06:06;;;;;;;18.27;10.72;;;;;;;-3.12;89.06;98640.47;1722878;83;21666;-49
2021/01/29 04:09:09;;;;;;;15.83;8.30;;;;;;;-3.12;89.29;98640.88;1723010;83;21224;-43
2021/01/29 04:11:50;;;;;;;12.90;7.42;;;;;;;-3.08;89.42;98631.16;1816861;79;23110;-43
2021/01/29 04:14:53;;;;;;;13.55;7.40;;;;;;;-3.13;89.29;98636.56;1769434;80;21186;-48
2021/01/29 04:17:29;;;;;;;13.70;7.83;;;;;;;-3.14;89.28;98639.95;1756338;82;21167;-42
2021/01/29 04:20:04;;;;;;;13.20;7.47;;;;;;;-3.15;89.41;98641.64;1756226;80;21238;-48
2021/01/29 04:22:36;;;;;;;14.98;7.80;;;;;;;-3.17;89.33;98638.60;1764234;81;21461;-43
2021/01/29 04:25:24;;;;;;;11.78;7.37;;;;;;;-3.19;89.60;98637.25;1763875;80;21168;-44
2021/01/29 04:27:57;;;;;;;12.03;7.47;;;;;;;-3.19;89.72;98627.44;1756275;82;21329;-44
2021/01/29 04:30:28;;;;;;;14.30;8.25;;;;;;;-3.18;89.77;98638.16;1753173;80;21208;-49
2021/01/29 04:33:07;;;;;;;13.05;9.18;;;;;;;-3.18;89.74;98643.27;1764184;81;21165;-48
2021/01/29 04:35:36;;;;;;;14.40;8.98;;;;;;;-3.19;89.44;98641.51;1763018;80;21215;-44
2021/01/29 04:38:17;;;;;;;16.75;10.03;;;;;;;-3.23;89.15;98640.16;1761032;81;21131;-42
2021/01/29 04:41:24;;;;;;;15.53;8.28;;;;;;;-3.28;89.11;98645.55;1727269;82;21224;-44
2021/01/29 04:44:21;;;;;;;14.05;8.43;;;;;;;-3.32;88.72;98639.88;1727247;82;21354;-44
2021/01/29 04:47:19;;;;;;;15.40;8.78;;;;;;;-3.40;88.45;98643.92;1740039;79;22993;-48
2021/01/29 04:50:30;;;;;;;16.42;8.98;;;;;;;-3.50;88.20;98651.73;1689391;84;21815;-48
2021/01/29 04:53:24;;;;;;;19.00;9.03;;;;;;;-3.59;87.90;98647.64;1711796;83;21147;-43
2021/01/29 04:56:22;;;;;;;13.83;8.95;;;;;;;-3.66;87.74;98647.39;1722775;83;21341;-44
2021/01/29 04:59:37;;;;;;;18.27;9.00;;;;;;;-3.72;87.58;98654.88;1722917;82;22127;-42
2021/01/29 05:02:48;;;;;;;15.68;8.75;;;;;;;-3.77;87.29;98653.45;1761400;79;22945;-42
2021/01/29 05:05:58;;;;;;;20.77;9.13;;;;;;;-3.87;87.17;98657.44;1679939;84;21948;-43
2021/01/29 05:09:06;;;;;;;15.63;9.30;;;;;;;-3.88;86.87;98654.84;1777363;79;22996;-48
2021/01/29 05:12:33;;;;;;;15.53;8.73;;;;;;;-3.97;86.77;98660.52;1747792;80;21136;-43
2021/01/29 05:15:44;;;;;;;14.60;8.73;;;;;;;-4.01;86.63;98658.67;1692763;84;21216;-49
2021/01/29 05:19:00;;;;;;;14.20;8.13;;;;;;;-4.04;86.38;98658.19;1738737;79;22788;-42
2021/01/29 05:21:59;;;;;;;17.32;9.50;;;;;;;-4.11;86.32;98676.70;1681928;83;21210;-43
2021/01/29 05:25:20;;;;;;;19.52;9.23;;;;;;;-4.14;86.08;98679.55;1722604;82;21204;-42
2021/01/29 05:28:30;;;;;;;15.80;8.55;;;;;;;-4.18;85.97;98672.59;1713373;83;21775;-49
2021/01/29 05:31:09;;;;;;;14.78;8.83;;;;;;;-4.22;85.67;98679.31;1707584;84;21330;-49
2021/01/29 05:34:03;;;;;;;18.65;9.25;;;;;;;-4.27;85.38;98687.23;1707934;83;21156;-48
2021/01/29 05:37:11;;;;;;;16.40;8.33;;;;;;;-4.31;85.31;98689.22;1708072;83;21161;-42
2021/01/29 05:40:16;;;;;;;14.20;8.45;;;;;;;-4.36;85.27;98676.28;1708545;83;21206;-48
2021/01/29 05:42:55;;;;;;;11.30;8.25;;;;;;;-4.37;85.04;98683.91;1708427;83;21741;-49
2021/01/29 05:45:53;;;;;;;17.73;9.55;;;;;;;-4.40;84.63;98679.58;1718605;83;21241;-44
2021/01/29 05:48:33;;;;;;;17.00;8.53;;;;;;;-4.43;84.32;98679.46;1714561;83;21199;-44
2021/01/29 05:51:26;;;;;;;18.20;8.50;;;;;;;-4.47;84.24;98680.16;1709173;82;21303;-44
2021/01/29 05:54:09;;;;;;;16.42;10.78;;;;;;;-4.49;84.25;98684.36;1705799;82;21757;-47
2021/01/29 05:57:11;;;;;;;18.00;12.15;;;;;;;-4.49;84.21;98683.09;1708725;83;21218;-48
2021/01/29 06:00:13;;;;;;;23.62;12.78;;;;;;;-4.49;84.25;98668.18;1713712;83;21200;-43
2021/01/29 06:03:14;;;;;;;16.82;11.68;;;;;;;-4.45;84.10;98678.97;1706992;82;21710;-44
2021/01/29 06:06:02;;;;;;;19.90;10.90;;;;;;;-4.45;83.83;98678.55;1629235;87;21211;-42
2021/01/29 06:08:50;;;;;;;16.65;10.50;;;;;;;-4.43;83.65;98675.63;1634893;85;21158;-43
2021/01/29 06:12:13;;;;;;;19.62;10.93;;;;;;;-4.41;83.50;98675.27;1629815;87;21774;-43
2021/01/29 06:15:15;;;;;;;17.57;10.55;;;;;;;-4.38;83.22;98674.52;1630452;87;21231;-43
2021/01/29 06:18:01;;;;;;;15.20;9.93;;;;;;;-4.36;82.93;98669.03;1627108;86;21856;-48
2021/01/29 06:21:06;;;;;;;17.60;10.45;;;;;;;-4.36;82.69;98672.87;1626186;87;21533;-47
2021/01/29 06:24:21;;;;;;;19.15;9.73;;;;;;;-4.30;82.43;98667.55;1803758;77;22680;-47
2021/01/29 06:27:29;;;;;;;14.68;8.98;;;;;;;-4.32;82.25;98667.05;1783912;78;21566;-43
2021/01/29 06:30:37;;;;;;;18.73;10.98;;;;;;;-4.27;82.08;98669.77;1777581;78;21234;-42
2021/01/29 06:33:33;;;;;;;14.75;8.75;;;;;;;-4.22;81.99;98670.78;1781486;78;21182;-43
2021/01/29 06:36:37;;;;;;;15.38;8.35;;;;;;;-4.17;81.68;98658.63;1780773;78;21484;-47
2021/01/29 06:39:38;;;;;;;14.53;8.45;;;;;;;-4.08;81.52;98660.59;1788216;78;22302;-49
2021/01/29 06:42:36;;;;;;;19.30;8.78;;;;;;;-4.04;81.16;98658.19;1786628;78;21127;-46
2021/01/29 06:45:29;;;;;;;15.95;8.83;;;;;;;-3.98;80.87;98650.26;1701791;83;21234;-48
2021/01/29 06:48:40;;;;;;;15.53;9.18;;;;;;;-3.95;80.81;98651.61;1694460;83;21988;-44
2021/01/29 06:51:26;;;;;;;13.30;8.38;;;;;;;-3.90;80.71;98666.27;1692206;83;21200;-47
2021/01/29 06:54:09;;;;;;;14.38;8.75;;;;;;;-3.84;80.37;98667.73;1692896;83;21576;-49
2021/01/29 06:57:04;;;;;;;13.18;9.10;;;;;;;-3.81;80.02;98672.95;1696605;83;21215;-42
2021/01/29 07:00:12;;;;;;;12.68;7.92;;;;;;;-3.80;79.82;98678.52;1690692;83;21151;-44
2021/01/29 07:03:02;;;;;;;18.02;8.40;;;;;;;-3.76;79.72;98693.14;1696783;83;21187;-43
2021/01/29 07:06:02;;;;;;;14.65;8.38;;;;;;;-3.70;79.66;98700.55;1689027;83;21345;-47
2021/01/29 07:09:02;;;;;;;11.88;8.70;;;;;;;-3.64;79.62;98705.44;1667724;83;21203;-43
2021/01/29 07:11:51;;;;;;;15.20;9.68;;;;;;;-3.58;79.37;98707.31;1685166;83;21573;-47
2021/01/29 07:14:47;;;;;;;16.45;10.72;;;;;;;-3.55;78.95;98713.37;1681560;83;21338;-48
2021/01/29 07:20:59;;;;;;;17.32;10.82;;;;;;;-3.37;78.63;98715.61;1801799;78;23371;-48
2021/01/29 07:24:09;;;;;;;17.45;9.68;;;;;;;-3.38;78.52;98719.00;1716107;81;21269;-48
2021/01/29 07:26:54;;;;;;;18.55;10.38;;;;;;;-3.32;78.18;98720.87;1699242;81;21598;-48
2021/01/29 07:29:34;;;;;;;13.25;9.93;;;;;;;-3.27;78.03;98732.97;1717763;81;21202;-43
2021/01/29 07:32:13;;;;;;;14.13;9.18;;;;;;;-3.26;77.62;98729.59;1720267;81;21262;-43
2021/01/29 07:34:53;;;;;;;14.28;8.90;;;;;;;-3.23;77.41;98722.44;1720266;81;21790;-45
2021/01/29 07:37:55;;;;;;;12.78;8.30;;;;;;;-3.22;77.13;98721.61;1719086;81;21332;-43
2021/01/29 07:40:28;;;;;;;18.45;9.43;;;;;;;-3.19;76.89;98717.84;1717923;81;21172;-43
2021/01/29 07:43:27;;;;;;;15.20;10.28;;;;;;;-3.17;76.59;98724.30;1689979;83;21649;-42
2021/01/29 07:46:28;;;;;;;16.23;11.30;;;;;;;-3.16;76.68;98732.44;1688538;84;21170;-48
2021/01/29 07:49:46;;;;;;;16.80;11.30;;;;;;;-3.14;76.88;98721.82;1668831;85;21229;-42
2021/01/29 07:52:42;;;;;;;18.30;10.23;;;;;;;-3.07;76.56;98719.51;1672739;84;21193;-42
2021/01/29 07:55:23;;;;;;;18.27;10.35;;;;;;;-3.01;76.51;98718.40;1671464;84;21187;-43
2021/01/29 07:58:20;;;;;;;15.75;10.43;;;;;;;-2.91;76.29;98716.95;1703168;82;21580;-43
2021/01/29 08:01:14;;;;;;;19.05;11.00;;;;;;;-2.85;76.20;98719.67;1714620;82;21146;-41
2021/01/29 08:04:00;;;;;;;16.55;10.00;;;;;;;-2.79;75.96;98708.33;1722119;82;21198;-48
2021/01/29 08:06:42;;;;;;;14.87;10.08;;;;;;;-2.62;76.05;98702.39;1721272;82;21166;-42
2021/01/29 08:09:25;;;;;;;15.78;9.48;;;;;;;-2.43;75.74;98694.80;1723940;82;21207;-46
2021/01/29 08:11:57;;;;;;;18.55;11.78;;;;;;;-2.31;75.32;98687.84;1747132;81;21999;-48
2021/01/29 08:14:58;;;;;;;23.38;11.15;;;;;;;-2.28;75.09;98686.62;1709585;83;21493;-42
2021/01/29 08:17:49;;;;;;;21.00;11.57;;;;;;;-2.28;74.62;98684.06;1716480;83;21131;-49
2021/01/29 08:20:29;;;;;;;17.32;10.48;;;;;;;-2.30;74.78;98690.85;1734792;81;21178;-47
2021/01/29 08:23:40;;;;;;;24.50;14.63;;;;;;;-2.27;75.08;98676.82;1737435;81;21642;-45
2021/01/29 08:26:33;;;;;;;26.07;15.23;;;;;;;-2.21;74.89;98685.52;1728452;81;21191;-44
2021/01/29 08:29:21;;;;;;;24.82;14.95;;;;;;;-2.13;74.32;98684.88;1730079;80;21190;-44
2021/01/29 08:32:41;;;;;;;27.60;14.78;;;;;;;-2.13;74.58;98684.88;1721856;82;21139;-43
2021/01/29 08:35:47;;;;;;;23.05;14.58;;;;;;;-2.12;73.86;98684.03;1728724;81;21842;-47
2021/01/29 08:38:34;;;;;;;20.15;13.93;;;;;;;-2.15;73.76;98691.22;1719304;82;21174;-48
2021/01/29 08:41:59;;;;;;;22.85;13.55;;;;;;;-2.16;73.78;98690.35;1702534;83;21242;-48
2021/01/29 08:45:23;;;;;;;22.32;11.15;;;;;;;-2.13;73.90;98697.27;1722175;82;21364;-49
2021/01/29 08:48:13;;;;;;;18.00;10.60;;;;;;;-2.07;73.22;98692.30;1728156;81;21207;-42
2021/01/29 08:51:16;;;;;;;18.20;10.80;;;;;;;-2.05;73.07;98692.32;1730401;81;21611;-47
2021/01/29 08:54:31;;;;;;;17.12;11.00;;;;;;;-2.04;72.93;98688.92;1732236;80;21182;-47
2021/01/29 08:57:23;;;;;;;14.75;9.48;;;;;;;-2.02;73.15;98688.15;1728767;82;21585;-48
2021/01/29 08:59:52;;;;;;;;;;;;;;;-2.04;72.65;98679.53;1727393;81;21635;-42
2021/01/29 09:02:57;;;;;;;18.10;10.13;;;;;;;-2.08;73.10;98679.45;1690225;81;20168;-48
2021/01/29 09:05:28;;;;;;;15.83;9.10;;;;;;;-2.10;73.54;98675.96;1727416;81;21289;-48
2021/01/29 09:08:05;;;;;;;17.73;11.07;;;;;;;-2.10;73.52;98675.96;1730270;81;21207;-49
2021/01/29 09:11:12;;;;;;;21.75;12.25;;;;;;;-2.12;74.06;98664.40;1709621;81;21824;-49
2021/01/29 09:13:42;;;;;;;18.87;10.90;;;;;;;-2.12;74.05;98659.27;1731002;81;21653;-48
2021/01/29 09:16:31;;;;;;;19.23;11.85;;;;;;;-2.11;74.45;98662.28;1706498;82;21573;-49
2021/01/29 09:19:14;;;;;;;25.25;10.35;;;;;;;-2.09;74.78;98650.36;1732901;81;21135;-48
2021/01/29 09:22:13;;;;;;;18.50;11.68;;;;;;;-2.06;74.91;98649.17;1731469;82;21133;-48
2021/01/29 09:25:04;;;;;;;16.23;10.70;;;;;;;-2.05;75.22;98643.63;1651468;84;21626;-49
2021/01/29 09:28:11;;;;;;;16.67;10.05;;;;;;;-2.03;75.22;98639.00;1693812;83;21163;-49
2021/01/29 09:30:58;;;;;;;19.15;11.40;;;;;;;-2.03;75.35;98638.11;1693488;83;21668;-48
2021/01/29 09:33:49;;;;;;;19.92;12.45;;;;;;;-2.05;75.24;98638.08;1689769;83;21616;-48
2021/01/29 09:36:25;;;;;;;23.42;13.43;;;;;;;-2.06;75.29;98637.63;1661527;84;21593;-49
2021/01/29 09:38:59;;;;;;;28.85;18.05;;;;;;;-2.04;75.83;98629.55;1686389;83;21191;-49
2021/01/29 09:41:36;;;;;;;26.05;16.40;;;;;;;-2.00;76.02;98633.94;1691489;82;21863;-44
2021/01/29 09:44:20;;;;;;;27.45;17.48;;;;;;;-1.95;75.81;98634.05;1687818;83;21806;-45
2021/01/29 09:46:57;;;;;;;23.05;15.03;;;;;;;-1.86;75.85;98638.09;1792400;78;23277;-42
2021/01/29 09:49:31;;;;;;;26.65;16.75;;;;;;;-1.89;75.58;98626.08;1768272;80;21712;-42
2021/01/29 09:52:19;;;;;;;29.57;16.27;;;;;;;-1.82;75.72;98623.65;1769532;79;21285;-50
2021/01/29 09:55:06;;;;;;;26.12;16.90;;;;;;;-1.76;75.85;98620.80;1767498;79;21213;-48
2021/01/29 09:57:39;;;;;;;35.35;18.30;;;;;;;-1.73;75.42;98614.89;1769873;79;21462;-46
2021/01/29 10:00:19;;;;;;;26.65;16.67;;;;;;;-1.70;74.85;98604.27;1742073;80;21139;-50
2021/01/29 10:03:14;;;;;;;23.87;16.00;;;;;;;-1.65;75.13;98599.25;1702818;81;21212;-49
2021/01/29 10:06:09;;;;;;;22.98;15.72;;;;;;;-1.58;74.49;98592.13;1706656;81;21220;-48
2021/01/29 10:08:43;;;;;;;23.55;15.60;;;;;;;-1.44;74.58;98596.28;1727909;81;21204;-45
2021/01/29 10:11:32;;;;;;;25.80;16.15;;;;;;;-1.29;73.99;98600.41;1732864;81;21193;-50
2021/01/29 10:14:18;;;;;;;25.25;16.65;;;;;;;-1.16;73.61;98602.41;1733042;81;21811;-49
2021/01/29 10:17:08;;;;;;;24.67;16.50;;;;;;;-0.99;72.85;98598.00;1800810;77;23611;-44
2021/01/29 10:19:41;;;;;;;25.48;15.98;;;;;;;-0.99;72.70;98603.98;1769015;78;21151;-49
2021/01/29 10:22:56;;;;;;;22.05;13.35;;;;;;;-0.96;71.99;98601.92;1772689;78;21252;-44
2021/01/29 10:25:47;;;;;;;22.63;11.70;;;;;;;-0.96;71.81;98598.93;1714896;81;21472;-48
2021/01/29 10:28:37;;;;;;;19.42;11.63;;;;;;;-0.95;71.78;98601.08;1692764;81;21401;-43
2021/01/29 10:31:17;;;;;;;17.52;12.47;;;;;;;-0.97;70.87;98591.20;1708593;81;21160;-52
2021/01/29 10:34:22;;;;;;;18.62;11.48;;;;;;;-1.01;70.99;98587.70;1720730;81;21185;-41
2021/01/29 10:37:08;;;;;;;17.95;11.15;;;;;;;-1.07;70.71;98580.75;1719231;81;21467;-42
2021/01/29 10:39:56;;;;;;;17.32;10.48;;;;;;;-1.07;70.31;98586.31;1719414;81;21147;-47
2021/01/29 10:45:06;;;;;;;16.42;10.28;;;;;;;-1.12;69.31;98568.25;1782619;78;23754;-44
2021/01/29 10:48:45;;;;;;;17.30;10.48;;;;;;;-1.22;69.57;98571.89;1723006;81;21693;-44
2021/01/29 10:51:34;;;;;;;17.05;10.55;;;;;;;-1.24;70.28;98576.14;1682188;80;21177;-45
2021/01/29 10:54:04;;;;;;;18.70;10.68;;;;;;;-1.27;70.12;98576.09;1753533;80;21174;-43
2021/01/29 10:57:01;;;;;;;17.17;10.13;;;;;;;-1.29;69.95;98573.47;1754306;80;21510;-42
2021/01/29 10:59:52;;;;;;;16.65;10.38;;;;;;;-1.33;69.70;98569.14;1750909;80;21154;-43
2021/01/29 11:02:32;;;;;;;19.02;12.13;;;;;;;-1.41;70.29;98561.69;1748189;80;21168;-41
2021/01/29 11:05:15;;;;;;;18.07;10.85;;;;;;;-1.44;70.96;98543.27;1756261;80;21875;-41
2021/01/29 11:07:48;;;;;;;19.57;11.25;;;;;;;-1.42;71.28;98548.00;1753977;80;21573;-42
2021/01/29 11:10:31;;;;;;;19.55;11.08;;;;;;;-1.42;71.14;98544.56;1727897;80;21242;-42
2021/01/29 11:13:05;;;;;;;18.00;11.10;;;;;;;-1.41;71.37;98546.30;1755541;80;21729;-47
2021/01/29 11:15:57;;;;;;;17.85;11.48;;;;;;;-1.41;71.18;98539.46;1754699;80;21731;-47
2021/01/29 11:18:32;;;;;;;17.32;10.90;;;;;;;-1.42;70.92;98526.19;1751466;80;21239;-47
2021/01/29 11:21:56;;;;;;;17.55;10.03;;;;;;;-1.40;71.02;98520.66;1729635;81;21154;-43
2021/01/29 11:24:45;;;;;;;17.52;10.60;;;;;;;-1.37;71.37;98516.02;1753441;79;21852;-47
2021/01/29 11:27:45;;;;;;;17.23;11.48;;;;;;;-1.36;70.85;98522.87;1757188;80;21121;-45
2021/01/29 11:30:26;;;;;;;19.30;11.55;;;;;;;-1.38;70.95;98515.16;1752225;80;21341;-47
2021/01/29 11:33:07;;;;;;;15.70;10.63;;;;;;;-1.38;70.88;98512.59;1713790;81;21778;-41
2021/01/29 11:36:02;;;;;;;17.98;10.28;;;;;;;-1.39;71.09;98512.16;1683056;80;21179;-43
2021/01/29 11:39:04;;;;;;;18.57;12.05;;;;;;;-1.38;70.75;98515.16;1695732;81;21608;-48
2021/01/29 11:41:44;;;;;;;21.85;11.88;;;;;;;-1.40;70.56;98505.69;1722893;81;21729;-48
2021/01/29 11:44:31;;;;;;;17.10;11.18;;;;;;;-1.42;70.74;98500.95;1714219;81;21143;-40
2021/01/29 11:47:16;;;;;;;20.37;11.93;;;;;;;-1.45;70.52;98507.30;1692117;83;21698;-47
2021/01/29 11:50:11;;;;;;;16.82;10.78;;;;;;;-1.44;70.94;98499.66;1789708;77;24863;-44
2021/01/29 11:53:07;;;;;;;19.27;12.25;;;;;;;-1.48;71.02;98490.58;1785937;78;21197;-47
2021/01/29 11:55:49;;;;;;;17.75;10.55;;;;;;;-1.48;71.20;98484.17;1784192;78;21247;-48
2021/01/29 11:58:51;;;;;;;17.62;11.55;;;;;;;-1.48;70.57;98499.56;1782463;78;21701;-42
2021/01/29 12:01:26;;;;;;;19.87;11.35;;;;;;;-1.49;71.14;98491.00;1783282;78;21176;-44
2021/01/29 12:04:24;;;;;;;16.17;10.93;;;;;;;-1.48;71.06;98484.17;1786961;78;21249;-41
2021/01/29 12:07:05;;;;;;;19.02;11.08;;;;;;;-1.46;71.04;98492.33;1786241;78;21594;-42
2021/01/29 12:09:47;;;;;;;16.93;10.72;;;;;;;-1.41;70.78;98483.02;1761951;78;21147;-41
2021/01/29 12:12:28;;;;;;;16.80;11.33;;;;;;;-1.39;70.13;98483.94;1750054;80;21571;-49
2021/01/29 12:15:23;;;;;;;17.25;10.45;;;;;;;-1.36;70.32;98471.56;1745944;80;21343;-43
2021/01/29 12:18:07;;;;;;;19.98;11.28;;;;;;;-1.32;70.15;98479.77;1731526;81;21236;-42
2021/01/29 12:42:20;;;;;;;19.50;11.65;;;;;;;-1.05;69.58;98471.67;1795131;78;26527;-51
2021/01/29 12:45:08;;;;;;;17.85;10.98;;;;;;;-1.12;69.20;98465.58;1701788;82;21686;-46
2021/01/29 12:47:56;;;;;;;19.85;10.80;;;;;;;-1.19;69.32;98456.47;1710342;82;21368;-43
2021/01/29 12:51:03;;;;;;;17.52;11.12;;;;;;;-1.20;69.38;98462.03;1792480;78;23544;-43
2021/01/29 12:54:11;;;;;;;16.80;11.53;;;;;;;-1.29;69.11;98456.72;1768689;79;21178;-50
2021/01/29 12:56:44;;;;;;;17.27;10.95;;;;;;;-1.34;69.44;98450.64;1767014;80;21211;-50
2021/01/29 12:59:12;;;;;;;16.23;11.15;;;;;;;-1.38;69.88;98452.72;1767180;79;21155;-51
2021/01/29 13:01:56;;;;;;;15.38;10.55;;;;;;;-1.43;69.93;98447.50;1725551;82;21127;-45
2021/01/29 13:04:58;;;;;;;17.57;10.90;;;;;;;-1.45;70.21;98460.73;1719838;82;21190;-51
2021/01/29 13:07:27;;;;;;;18.15;10.90;;;;;;;-1.49;70.04;98447.39;1708127;82;21607;-48
2021/01/29 13:10:26;;;;;;;21.75;12.20;;;;;;;-1.53;70.40;98452.43;1710778;82;21139;-49
2021/01/29 13:13:06;;;;;;;18.52;11.80;;;;;;;-1.58;70.46;98448.91;1707592;82;21158;-49
2021/01/29 13:16:03;;;;;;;18.60;10.93;;;;;;;-1.62;70.86;98448.02;1704021;82;21517;-42
2021/01/29 13:19:02;;;;;;;17.62;11.65;;;;;;;-1.66;70.81;98450.06;1706866;82;21725;-42
2021/01/29 13:21:37;;;;;;;21.77;12.35;;;;;;;-1.67;71.25;98450.91;1706469;82;21170;-43
2021/01/29 13:24:09;;;;;;;20.92;13.00;;;;;;;-1.67;71.30;98446.63;1717415;82;21654;-43
2021/01/29 13:26:39;;;;;;;25.12;13.62;;;;;;;-1.67;71.25;98445.35;1713200;82;21155;-42
2021/01/29 13:29:24;;;;;;;21.27;13.18;;;;;;;-1.67;71.39;98444.06;1680611;83;21725;-49
2021/01/29 13:31:59;;;;;;;19.27;11.45;;;;;;;-1.67;71.38;98444.06;1713509;82;21709;-49
2021/01/29 13:43:19;;;;;;;16.65;10.78;;;;;;;-1.66;72.39;98445.80;1794687;78;23415;-40
2021/01/29 13:45:47;;;;;;;18.55;11.75;;;;;;;-1.71;72.75;98450.39;1752939;81;21639;-43
2021/01/29 13:48:19;;;;;;;19.32;11.83;;;;;;;-1.72;73.05;98452.09;1707904;82;21183;-52